Andrews AFB, Maryland
Current Conditions -  °F | °C
As of 6:58 AM on Wednesday 28 Jan 2015 (Local Time) from KADW Reporting Station
Clear Clear  
Wind Chill: -13°   Ceiling: Unl
Heat Index: -6°   Visibility: 10mi
Dew Point: -13°   Wind: 13mph
Humidity: 58%   Direction: 310°NW
Pressure: 30.13"   Gusts: NA
Location:  38.8°N, 76.87°W
Report Text: KADW 281158Z 31011KT 10SM CLR M06/M13 A3013 RMK AO2A SLP214 T10611131 11034 21061 52026 $
Loading
Personal Weather Stations






























Interactive Weather Map New forecast layout! Learn more

10-Day Weather Forecast

Advertisements
Track Severe Weather on mobile